Time;durP1;ratioP1;P1;durP2;ratioP2;P2;SDS_P1;SDS_P2;PMS_P1;PMS_P2;Temp;Humidity;BMP_temperature;BMP_pressure;BME280_temperature;BME280_humidity;BME280_pressure;Samples;Min_cycle;Max_cycle;Signal;HPM_P1;HPM_P2
2023/08/09 00:01:34;;;;;;;3.17;2.20;;;;;;;15.94;100.00;101141.47;5053132;28;20039;-63
2023/08/09 00:03:59;;;;;;;3.40;2.47;;;;;;;15.97;99.89;101144.13;5052913;28;20081;-63
2023/08/09 00:06:24;;;;;;;4.28;2.40;;;;;;;16.02;99.65;101160.97;5053295;28;20044;-63
2023/08/09 00:08:50;;;;;;;3.42;2.30;;;;;;;15.99;98.08;101150.31;5053125;28;20509;-62
2023/08/09 00:11:16;;;;;;;3.28;2.22;;;;;;;15.96;97.99;101150.31;5053004;28;20025;-62
2023/08/09 00:13:41;;;;;;;3.15;2.25;;;;;;;16.00;98.58;101151.19;5052905;28;20021;-63
2023/08/09 00:16:06;;;;;;;3.35;2.53;;;;;;;15.97;98.38;101154.78;5052941;28;20028;-62
2023/08/09 00:18:32;;;;;;;3.58;2.60;;;;;;;15.95;98.31;101153.91;5052604;28;20029;-63
2023/08/09 00:20:58;;;;;;;3.47;2.40;;;;;;;15.97;98.04;101157.47;5052600;28;20025;-62
2023/08/09 00:23:24;;;;;;;3.10;2.28;;;;;;;15.97;98.16;101160.13;5052667;28;20033;-66
2023/08/09 00:25:49;;;;;;;4.72;2.30;;;;;;;15.97;97.61;101162.78;5053041;28;20022;-63
2023/08/09 00:28:14;;;;;;;4.20;2.47;;;;;;;16.00;96.62;101154.75;5058552;28;20025;-63
2023/08/09 00:30:40;;;;;;;3.88;2.47;;;;;;;15.97;96.67;101160.13;5059458;28;20482;-63
2023/08/09 00:33:05;;;;;;;4.25;2.55;;;;;;;16.01;97.48;101159.19;5059721;28;20470;-63
2023/08/09 00:35:33;;;;;;;4.35;2.70;;;;;;;16.00;97.44;101165.41;5059399;28;20025;-63
2023/08/09 00:37:59;;;;;;;4.10;2.40;;;;;;;16.10;97.16;101152.94;5059417;28;20043;-63
2023/08/09 00:40:24;;;;;;;4.07;2.40;;;;;;;16.12;97.24;101150.25;5059511;28;20036;-63
2023/08/09 00:42:50;;;;;;;5.05;2.45;;;;;;;16.19;96.65;101147.53;5059163;28;20033;-62
2023/08/09 00:45:15;;;;;;;4.45;2.63;;;;;;;16.21;96.49;101153.72;5059468;28;20040;-63
2023/08/09 00:47:41;;;;;;;4.25;2.50;;;;;;;16.22;96.05;101150.16;5059464;28;20032;-63
2023/08/09 00:50:06;;;;;;;3.30;2.38;;;;;;;16.23;95.98;101165.28;5059235;28;20029;-62
2023/08/09 00:52:32;;;;;;;4.35;2.50;;;;;;;16.18;95.60;101164.41;5059105;28;20029;-64
2023/08/09 00:55:00;;;;;;;4.07;2.50;;;;;;;16.14;95.85;101156.44;5059242;28;20044;-62
2023/08/09 00:57:25;;;;;;;3.60;2.40;;;;;;;16.02;95.86;101165.41;5059108;28;20025;-63
2023/08/09 00:59:51;;;;;;;4.07;2.40;;;;;;;15.87;96.32;101161.06;5059044;28;20047;-63
2023/08/09 01:02:16;;;;;;;5.88;2.72;;;;;;;15.75;97.43;101171.78;5058935;28;20029;-63
2023/08/09 01:04:42;;;;;;;3.58;2.65;;;;;;;15.76;98.42;101178.91;5058996;28;20033;-63
2023/08/09 01:07:28;;;;;;;4.07;2.50;;;;;;;15.75;98.78;101175.31;5058948;28;20024;-63
2023/08/09 01:10:14;;;;;;;4.93;2.63;;;;;;;15.71;99.56;101178.91;5058995;28;20078;-63
2023/08/09 01:12:43;;;;;;;4.13;2.67;;;;;;;15.69;98.44;101171.81;5058784;28;20105;-63
2023/08/09 01:15:12;;;;;;;4.15;2.90;;;;;;;15.65;98.19;101175.41;5058739;28;20025;-63
2023/08/09 01:17:40;;;;;;;4.03;2.63;;;;;;;15.56;98.56;101173.63;5059006;28;20033;-63
2023/08/09 01:20:16;;;;;;;5.85;2.88;;;;;;;15.60;99.22;101172.72;5058576;28;20028;-63
2023/08/09 01:22:50;;;;;;;5.63;3.00;;;;;;;15.69;99.03;101177.16;5058865;28;20029;-62
2023/08/09 01:25:16;;;;;;;4.07;2.80;;;;;;;15.75;98.71;101182.44;5058878;28;20094;-63
2023/08/09 01:27:42;;;;;;;4.10;2.80;;;;;;;15.77;98.41;101180.66;5058824;28;20021;-63
2023/08/09 01:30:09;;;;;;;5.53;3.08;;;;;;;15.75;98.24;101177.09;5058672;28;20147;-63
2023/08/09 01:32:35;;;;;;;4.80;2.85;;;;;;;15.76;98.63;101176.25;5058665;28;20057;-63
2023/08/09 01:35:01;;;;;;;5.80;3.00;;;;;;;15.71;99.23;101173.56;5058728;28;20061;-63
2023/08/09 01:37:34;;;;;;;4.88;2.90;;;;;;;15.60;99.92;101183.38;5041137;28;20021;-63
2023/08/09 01:40:08;;;;;;;3.70;2.92;;;;;;;15.61;100.00;101171.81;5054826;28;20082;-62
2023/08/09 01:42:35;;;;;;;4.55;2.67;;;;;;;15.69;100.00;101180.69;5055873;28;20385;-63
2023/08/09 01:45:02;;;;;;;5.78;3.08;;;;;;;15.66;99.82;101179.81;5055745;28;20437;-63
2023/08/09 01:47:28;;;;;;;3.92;2.83;;;;;;;15.71;99.27;101186.00;5055852;28;20151;-63
2023/08/09 01:49:54;;;;;;;6.45;2.97;;;;;;;15.71;99.13;101189.56;5055342;28;20018;-63
2023/08/09 01:52:19;;;;;;;4.80;2.90;;;;;;;15.68;98.72;101188.72;5055601;28;20420;-63
2023/08/09 01:54:45;;;;;;;5.35;2.70;;;;;;;15.68;99.13;101186.94;5055565;28;20036;-63
2023/08/09 01:57:11;;;;;;;4.15;2.95;;;;;;;15.70;98.54;101184.25;5055551;28;20536;-63
2023/08/09 01:59:37;;;;;;;7.65;2.92;;;;;;;15.62;98.37;101188.69;5055253;28;20065;-63
2023/08/09 02:02:03;;;;;;;7.75;3.00;;;;;;;15.67;98.37;101193.16;5054306;28;20029;-63
2023/08/09 02:04:29;;;;;;;4.47;2.72;;;;;;;15.58;97.97;101177.16;5055142;28;20020;-64
2023/08/09 02:06:54;;;;;;;3.55;2.85;;;;;;;15.51;97.89;101194.94;5055216;28;20108;-63
2023/08/09 02:09:20;;;;;;;5.65;2.97;;;;;;;15.44;98.43;101194.97;5055189;28;20037;-63
2023/08/09 02:11:46;;;;;;;5.82;2.90;;;;;;;15.48;98.66;101200.28;5054043;28;20029;-64
2023/08/09 02:14:11;;;;;;;4.60;3.00;;;;;;;15.43;98.13;101201.19;5055005;28;20033;-63
2023/08/09 02:16:37;;;;;;;3.55;2.90;;;;;;;15.36;97.87;101208.31;5037469;28;20113;-64
2023/08/09 02:19:03;;;;;;;3.65;2.85;;;;;;;15.30;97.71;101205.69;5055021;28;20037;-63
2023/08/09 02:21:28;;;;;;;5.68;2.83;;;;;;;15.31;98.14;101212.78;5054896;28;20475;-62
2023/08/09 02:23:54;;;;;;;3.30;2.80;;;;;;;15.27;97.74;101201.25;5054911;28;20029;-63
2023/08/09 02:26:20;;;;;;;4.97;2.85;;;;;;;15.22;97.31;101210.13;5055060;28;20025;-64
2023/08/09 02:28:45;;;;;;;10.88;3.17;;;;;;;15.09;97.34;101211.06;5054913;28;20386;-62
2023/08/09 02:31:11;;;;;;;5.65;3.05;;;;;;;14.96;97.67;101207.53;5054700;28;20039;-64
2023/08/09 02:33:37;;;;;;;6.70;2.80;;;;;;;14.98;98.40;101209.28;5053644;28;20025;-63
2023/08/09 02:36:03;;;;;;;5.35;3.33;;;;;;;15.07;98.60;101221.69;5054633;28;20052;-64
2023/08/09 02:38:29;;;;;;;9.07;3.20;;;;;;;15.08;97.84;101226.16;5054758;28;20020;-64
2023/08/09 02:40:55;;;;;;;4.35;3.25;;;;;;;15.02;97.30;101228.78;5054840;28;20131;-63
2023/08/09 02:43:26;;;;;;;3.58;2.97;;;;;;;14.97;96.84;101239.44;5054542;28;20536;-62
2023/08/09 02:45:53;;;;;;;4.70;3.50;;;;;;;15.01;97.18;101232.34;5054384;28;20129;-64
2023/08/09 02:48:19;;;;;;;6.78;3.63;;;;;;;15.03;97.04;101236.81;5054466;28;20397;-64
2023/08/09 02:50:44;;;;;;;13.00;3.70;;;;;;;14.98;96.47;101235.91;5036543;28;20017;-64
2023/08/09 02:53:10;;;;;;;20.15;3.78;;;;;;;14.94;96.54;101242.09;5054337;28;20108;-63
2023/08/09 02:55:36;;;;;;;18.05;3.70;;;;;;;14.85;96.46;101246.56;5054384;28;20026;-63
2023/08/09 02:58:03;;;;;;;16.52;3.80;;;;;;;14.80;96.81;101241.22;5054480;28;20021;-64
2023/08/09 03:00:30;;;;;;;22.77;3.70;;;;;;;14.75;96.90;101248.34;5036153;28;20052;-61
2023/08/09 03:02:55;;;;;;;12.82;3.13;;;;;;;14.71;97.32;101244.78;5054107;28;20029;-61
2023/08/09 03:05:20;;;;;;;11.00;3.20;;;;;;;14.70;97.60;101245.69;5053061;28;20029;-61
2023/08/09 03:07:46;;;;;;;9.15;3.30;;;;;;;14.69;98.01;101251.00;5054090;28;20032;-60
2023/08/09 03:10:12;;;;;;;7.55;3.35;;;;;;;14.66;97.87;101246.56;5054357;28;20387;-61
2023/08/09 03:12:37;;;;;;;6.07;3.08;;;;;;;14.71;97.98;101251.88;5054209;28;20427;-61
2023/08/09 03:15:04;;;;;;;5.28;3.30;;;;;;;14.67;98.06;101263.41;5053771;28;20028;-61
2023/08/09 03:17:30;;;;;;;4.03;3.30;;;;;;;14.66;98.29;101270.50;5053854;28;20505;-60
2023/08/09 03:19:55;;;;;;;4.03;3.33;;;;;;;14.60;97.81;101253.63;5053695;28;20029;-61
2023/08/09 03:22:22;;;;;;;9.75;3.50;;;;;;;14.58;98.20;101258.09;5053817;28;20025;-62
2023/08/09 03:24:49;;;;;;;4.10;3.20;;;;;;;14.52;97.57;101248.34;5053928;28;20029;-62
2023/08/09 03:27:14;;;;;;;17.27;3.47;;;;;;;14.44;98.09;101250.94;5053686;28;20083;-62
2023/08/09 03:29:39;;;;;;;12.40;3.38;;;;;;;14.49;98.97;101251.88;5053645;28;20443;-62
2023/08/09 03:32:05;;;;;;;17.58;3.33;;;;;;;14.48;98.67;101260.75;5053661;28;20501;-62
2023/08/09 03:34:30;;;;;;;17.38;3.00;;;;;;;14.47;98.54;101266.00;5053575;28;20044;-62
2023/08/09 03:36:56;;;;;;;8.73;3.15;;;;;;;14.45;98.21;101258.03;5053493;28;20025;-63
2023/08/09 03:39:21;;;;;;;4.80;3.45;;;;;;;14.46;98.16;101264.22;5053549;28;20033;-62
2023/08/09 03:41:47;;;;;;;7.15;3.10;;;;;;;14.45;98.63;101255.38;5053498;28;20108;-61
2023/08/09 03:44:13;;;;;;;3.78;3.08;;;;;;;14.55;97.96;101277.56;5053293;28;20029;-62
2023/08/09 03:46:39;;;;;;;3.60;3.10;;;;;;;14.53;97.54;101277.59;5053298;28;20493;-62
2023/08/09 03:49:04;;;;;;;4.32;2.80;;;;;;;14.51;97.40;101287.31;5035234;28;20104;-62
2023/08/09 03:51:30;;;;;;;3.92;2.70;;;;;;;14.55;97.30;101289.97;5053366;28;20025;-61
2023/08/09 03:53:55;;;;;;;3.67;2.60;;;;;;;14.55;96.33;101298.84;5053196;28;20036;-62
2023/08/09 03:56:21;;;;;;;3.47;2.50;;;;;;;14.64;95.89;101292.66;5053365;28;20041;-61
2023/08/09 03:58:46;;;;;;;4.60;2.20;;;;;;;14.55;95.21;101293.53;5052933;28;20140;-62
2023/08/09 04:01:12;;;;;;;2.50;2.20;;;;;;;14.59;95.55;101305.94;5052819;28;20033;-62
2023/08/09 04:03:38;;;;;;;3.20;2.20;;;;;;;14.60;95.35;101313.03;5052789;28;20075;-61
2023/08/09 04:06:05;;;;;;;3.08;2.28;;;;;;;14.65;94.63;101308.63;5053155;28;20021;-62
2023/08/09 04:08:31;;;;;;;2.60;2.10;;;;;;;14.56;93.94;101310.38;5052978;28;20090;-63
2023/08/09 04:10:57;;;;;;;15.35;2.60;;;;;;;14.42;94.00;101308.53;5052469;28;20025;-62
2023/08/09 04:13:23;;;;;;;20.13;2.67;;;;;;;14.33;94.71;101307.63;5052732;28;20029;-62
2023/08/09 04:15:48;;;;;;;11.88;2.75;;;;;;;14.24;95.35;101316.47;5052515;28;20025;-62
2023/08/09 04:18:16;;;;;;;22.75;2.55;;;;;;;14.09;95.61;101314.66;5052400;28;20375;-63
2023/08/09 04:20:42;;;;;;;20.08;2.50;;;;;;;13.92;96.63;101319.03;5052211;28;20021;-62
2023/08/09 04:23:08;;;;;;;8.85;2.78;;;;;;;13.76;97.65;101321.59;5052259;28;20143;-62
2023/08/09 04:25:33;;;;;;;17.92;2.78;;;;;;;13.63;98.99;101317.09;5052704;28;20029;-61
2023/08/09 04:27:59;;;;;;;27.45;3.10;;;;;;;13.56;99.67;101317.03;5052369;28;20021;-61
2023/08/09 04:30:25;;;;;;;27.52;3.60;;;;;;;13.50;100.00;101318.78;5052160;28;20074;-62
2023/08/09 04:32:52;;;;;;;47.85;3.40;;;;;;;13.46;100.00;101311.69;5052436;28;20259;-62
2023/08/09 04:35:18;;;;;;;32.55;3.30;;;;;;;13.45;100.00;101324.94;5052323;28;20104;-62
2023/08/09 04:37:44;;;;;;;14.02;3.00;;;;;;;13.52;100.00;101321.44;5052580;28;20115;-62
2023/08/09 04:40:10;;;;;;;16.60;3.08;;;;;;;13.60;100.00;101319.72;5052299;28;20394;-62
2023/08/09 04:42:43;;;;;;;21.52;3.15;;;;;;;13.65;100.00;101325.06;5052282;28;20021;-62
2023/08/09 04:45:12;;;;;;;21.02;2.90;;;;;;;13.72;100.00;101325.09;5051948;28;20064;-63
2023/08/09 04:47:38;;;;;;;8.55;3.15;;;;;;;13.78;100.00;101330.44;5052409;28;20110;-62
2023/08/09 04:50:05;;;;;;;8.80;3.00;;;;;;;13.83;100.00;101335.75;5051935;28;20466;-64
2023/08/09 04:52:33;;;;;;;4.55;3.20;;;;;;;13.94;100.00;101335.84;5052305;28;20117;-63
2023/08/09 04:54:58;;;;;;;6.53;3.25;;;;;;;14.04;100.00;101340.31;5052161;28;20043;-63
2023/08/09 04:57:25;;;;;;;4.82;3.03;;;;;;;14.14;100.00;101336.81;5052337;28;20552;-63
2023/08/09 04:59:50;;;;;;;5.75;3.20;;;;;;;14.25;100.00;101335.06;5051705;28;20053;-63
2023/08/09 05:02:16;;;;;;;9.90;3.40;;;;;;;14.28;100.00;101332.44;5052101;28;20041;-63
2023/08/09 05:04:41;;;;;;;7.32;3.78;;;;;;;14.31;100.00;101346.63;5051969;28;20063;-62
2023/08/09 05:07:06;;;;;;;9.32;3.97;;;;;;;14.25;100.00;101347.47;5052079;28;20509;-61
2023/08/09 05:09:32;;;;;;;13.98;4.10;;;;;;;14.22;100.00;101347.50;5052020;28;20071;-63
2023/08/09 05:11:58;;;;;;;8.82;3.97;;;;;;;14.26;100.00;101349.25;5052005;28;20048;-63
2023/08/09 05:14:25;;;;;;;17.02;4.35;;;;;;;14.34;100.00;101352.81;5053723;28;20470;-63
2023/08/09 05:16:51;;;;;;;6.10;4.32;;;;;;;14.40;100.00;101344.00;5055817;28;20482;-63
2023/08/09 05:19:18;;;;;;;6.90;4.82;;;;;;;14.48;100.00;101350.22;5055535;28;20116;-63
2023/08/09 05:21:43;;;;;;;6.88;4.95;;;;;;;14.59;100.00;101351.16;5037681;28;20043;-63
2023/08/09 05:24:08;;;;;;;8.50;5.63;;;;;;;14.64;100.00;101343.19;5055616;28;20106;-63
2023/08/09 05:26:34;;;;;;;8.48;5.93;;;;;;;14.76;100.00;101356.50;5055309;28;20025;-62
2023/08/09 05:28:59;;;;;;;9.70;6.40;;;;;;;14.90;100.00;101361.84;5055523;28;20530;-62
2023/08/09 05:31:25;;;;;;;8.95;6.47;;;;;;;15.03;100.00;101367.22;5055526;28;20470;-63
2023/08/09 05:33:50;;;;;;;7.72;6.93;;;;;;;15.09;100.00;101365.44;5037522;28;20037;-63
2023/08/09 05:36:15;;;;;;;8.75;6.47;;;;;;;15.14;100.00;101372.53;5055386;28;20541;-63
2023/08/09 05:38:41;;;;;;;10.15;6.90;;;;;;;15.27;100.00;101373.41;5055328;28;20399;-63
2023/08/09 05:41:06;;;;;;;9.45;7.10;;;;;;;15.35;100.00;101378.75;5037549;28;20064;-63
2023/08/09 05:43:32;;;;;;;9.70;7.05;;;;;;;15.50;100.00;101378.72;5055112;28;20331;-63
2023/08/09 05:45:57;;;;;;;9.25;7.10;;;;;;;15.58;100.00;101384.03;5055158;28;20135;-63
2023/08/09 05:48:22;;;;;;;11.45;7.47;;;;;;;15.64;100.00;101374.31;5055358;28;20127;-62
2023/08/09 05:50:48;;;;;;;9.80;7.88;;;;;;;15.63;100.00;101377.84;5055095;28;20033;-62
2023/08/09 05:53:13;;;;;;;10.02;7.95;;;;;;;15.64;100.00;101371.66;5055032;28;20025;-63
2023/08/09 05:55:40;;;;;;;9.75;8.15;;;;;;;15.73;100.00;101382.28;5055268;28;20113;-63
2023/08/09 05:58:05;;;;;;;13.20;9.00;;;;;;;15.81;100.00;101389.38;5055224;28;20040;-62
2023/08/09 06:00:31;;;;;;;13.32;8.60;;;;;;;15.77;100.00;101392.06;5054398;28;20049;-63
2023/08/09 06:02:57;;;;;;;13.07;9.45;;;;;;;15.77;100.00;101388.50;5055028;28;20356;-63
2023/08/09 06:05:25;;;;;;;12.68;9.50;;;;;;;15.72;100.00;101382.31;5054760;28;20040;-62
2023/08/09 06:07:55;;;;;;;11.65;9.23;;;;;;;15.77;100.00;101401.81;5053784;28;20120;-62
2023/08/09 06:10:22;;;;;;;11.73;10.18;;;;;;;15.78;100.00;101403.59;5054907;28;20033;-62
2023/08/09 06:12:49;;;;;;;11.90;10.43;;;;;;;15.81;100.00;101405.38;5054772;28;20493;-63
2023/08/09 06:15:15;;;;;;;15.93;10.52;;;;;;;15.83;100.00;101404.47;5054810;28;20094;-63
2023/08/09 06:17:40;;;;;;;14.18;12.07;;;;;;;15.84;100.00;101411.56;5054870;28;20459;-62
2023/08/09 06:20:07;;;;;;;16.50;12.27;;;;;;;15.81;100.00;101410.72;5054205;28;20061;-63
2023/08/09 06:22:32;;;;;;;14.52;12.15;;;;;;;15.80;100.00;101415.13;5054825;28;20017;-63
2023/08/09 06:24:58;;;;;;;15.45;13.43;;;;;;;15.81;100.00;101427.59;5054003;28;20033;-63
2023/08/09 06:27:24;;;;;;;15.90;13.15;;;;;;;15.85;100.00;101437.34;5036522;28;20056;-62
2023/08/09 06:29:49;;;;;;;17.00;13.88;;;;;;;15.84;100.00;101427.56;5054224;28;20172;-63
2023/08/09 06:32:15;;;;;;;17.13;13.88;;;;;;;15.90;100.00;101437.34;5054362;28;20062;-63
2023/08/09 06:34:40;;;;;;;17.83;15.02;;;;;;;15.98;100.00;101438.22;5054417;28;20037;-64
2023/08/09 06:37:05;;;;;;;16.67;14.68;;;;;;;16.06;100.00;101440.84;5054223;28;20501;-63
2023/08/09 06:39:33;;;;;;;17.38;14.10;;;;;;;16.11;100.00;101431.97;5054486;28;20032;-63
2023/08/09 06:41:59;;;;;;;16.40;14.00;;;;;;;16.09;100.00;101441.72;5054148;28;20028;-63
2023/08/09 06:44:24;;;;;;;17.17;14.18;;;;;;;16.08;100.00;101441.75;5054031;28;20025;-62
2023/08/09 06:46:51;;;;;;;17.55;14.25;;;;;;;16.15;100.00;101436.41;5036214;28;20025;-62
2023/08/09 06:49:17;;;;;;;18.15;14.05;;;;;;;16.25;100.00;101435.47;5054153;28;20028;-62
2023/08/09 06:51:42;;;;;;;18.42;14.27;;;;;;;16.38;100.00;101451.44;5054323;28;20466;-63
2023/08/09 06:54:07;;;;;;;20.80;14.48;;;;;;;16.45;100.00;101447.84;5036106;28;20036;-63
2023/08/09 06:56:35;;;;;;;17.95;13.85;;;;;;;16.50;100.00;101454.06;5019624;28;20025;-62
2023/08/09 06:59:00;;;;;;;19.42;14.07;;;;;;;16.56;100.00;101448.69;5035734;28;20029;-62
2023/08/09 07:01:26;;;;;;;17.65;13.73;;;;;;;16.58;100.00;101454.91;5053870;28;20505;-63
2023/08/09 07:03:52;;;;;;;19.92;16.15;;;;;;;16.64;100.00;101465.56;5053615;28;20036;-62
2023/08/09 07:06:18;;;;;;;20.73;13.63;;;;;;;16.78;100.00;101463.72;5053823;28;20029;-63
2023/08/09 07:08:43;;;;;;;20.38;15.30;;;;;;;16.92;100.00;101465.47;5035607;28;20040;-62
2023/08/09 07:11:09;;;;;;;19.27;14.68;;;;;;;16.95;100.00;101468.09;5053649;28;20108;-63
2023/08/09 07:13:35;;;;;;;18.50;14.43;;;;;;;16.89;99.37;101466.34;5053464;28;20029;-63
2023/08/09 07:16:00;;;;;;;19.08;14.80;;;;;;;17.02;100.00;101461.84;5053600;28;20033;-63
2023/08/09 07:18:26;;;;;;;17.25;13.82;;;;;;;17.01;98.74;101463.63;5053384;28;20029;-63
2023/08/09 07:20:51;;;;;;;22.08;15.60;;;;;;;17.11;99.32;101471.56;5053404;28;20496;-62
2023/08/09 07:23:16;;;;;;;20.38;15.55;;;;;;;17.10;98.36;101469.81;5035761;28;20391;-63
2023/08/09 07:25:42;;;;;;;20.58;15.20;;;;;;;17.33;97.98;101467.84;5035463;28;20438;-63
2023/08/09 07:28:07;;;;;;;18.65;14.40;;;;;;;17.67;99.22;101468.47;5053330;28;20025;-63
2023/08/09 07:30:33;;;;;;;20.77;14.27;;;;;;;17.76;96.46;101467.53;5053244;28;20025;-63
2023/08/09 07:32:59;;;;;;;19.48;14.85;;;;;;;17.85;96.96;101469.25;5053823;28;20478;-63
2023/08/09 07:35:24;;;;;;;21.42;14.73;;;;;;;17.94;95.51;101474.50;5053126;28;20029;-63
2023/08/09 07:37:50;;;;;;;18.52;13.82;;;;;;;17.97;95.93;101480.72;5052713;28;20037;-63
2023/08/09 07:40:16;;;;;;;18.58;13.90;;;;;;;18.00;94.60;101479.81;5053422;28;20025;-63
2023/08/09 07:42:42;;;;;;;17.60;13.32;;;;;;;18.14;95.39;101487.69;5053056;28;20044;-63
2023/08/09 07:45:09;;;;;;;17.67;13.07;;;;;;;18.25;93.18;101480.44;5052837;28;20029;-63
2023/08/09 07:47:35;;;;;;;18.83;13.82;;;;;;;18.33;92.40;101483.94;5053098;28;20108;-63
2023/08/09 07:50:00;;;;;;;15.90;12.30;;;;;;;18.35;92.48;101492.81;5052846;28;20067;-62
2023/08/09 07:52:26;;;;;;;15.05;12.00;;;;;;;18.33;92.24;101491.97;5052912;28;20021;-63
2023/08/09 07:54:52;;;;;;;14.95;12.07;;;;;;;18.59;92.33;101496.13;5053024;28;20044;-63
2023/08/09 07:57:17;;;;;;;14.98;12.55;;;;;;;18.66;91.08;101490.66;5052740;28;20033;-63
2023/08/09 07:59:42;;;;;;;14.20;11.48;;;;;;;18.71;90.92;101496.91;5052638;28;20049;-61
2023/08/09 08:02:09;;;;;;;15.68;11.20;;;;;;;18.82;90.89;101506.56;5052765;28;20029;-63
2023/08/09 08:04:34;;;;;;;14.30;10.90;;;;;;;18.92;90.92;101498.38;5052756;28;20353;-63
2023/08/09 08:07:00;;;;;;;12.70;10.23;;;;;;;19.02;89.79;101501.84;5052746;28;20119;-62
2023/08/09 08:09:25;;;;;;;18.33;11.73;;;;;;;19.08;88.57;101506.22;5052671;28;20429;-63
2023/08/09 08:11:52;;;;;;;13.60;10.88;;;;;;;19.31;89.82;101505.88;5052550;28;20029;-63
2023/08/09 08:14:17;;;;;;;13.35;10.82;;;;;;;19.46;87.45;101511.03;5052776;28;20040;-63
2023/08/09 08:16:43;;;;;;;15.35;11.27;;;;;;;19.45;88.06;101511.94;5052438;28;20386;-62
2023/08/09 08:19:09;;;;;;;14.32;11.25;;;;;;;19.56;86.47;101507.28;5052462;28;20040;-64
2023/08/09 08:21:34;;;;;;;13.38;10.45;;;;;;;19.49;83.76;101516.34;5052654;28;20450;-61
2023/08/09 08:24:00;;;;;;;11.48;9.35;;;;;;;19.52;84.22;101522.53;5018228;28;20168;-62
2023/08/09 08:26:26;;;;;;;12.98;9.85;;;;;;;19.58;85.48;101520.69;5052441;28;20048;-63
2023/08/09 08:28:52;;;;;;;12.38;9.98;;;;;;;19.83;84.54;101521.19;5034588;28;20025;-62
2023/08/09 08:31:19;;;;;;;12.25;9.07;;;;;;;20.11;84.34;101524.28;5052300;28;20024;-62
2023/08/09 08:33:49;;;;;;;12.18;9.10;;;;;;;20.15;81.55;101529.56;5052428;28;20032;-63
2023/08/09 08:36:16;;;;;;;15.57;9.40;;;;;;;20.20;81.67;101532.16;5052487;28;20040;-63
2023/08/09 08:38:42;;;;;;;10.35;8.60;;;;;;;20.33;79.72;101530.16;5051477;28;20129;-62
2023/08/09 08:41:08;;;;;;;14.38;10.05;;;;;;;20.34;79.85;101526.53;5052362;28;20079;-62
2023/08/09 08:43:34;;;;;;;10.82;9.07;;;;;;;20.47;79.76;101537.03;5052282;28;20025;-62
2023/08/09 08:46:04;;;;;;;12.00;9.20;;;;;;;20.71;81.17;101532.13;5052226;28;20037;-63
2023/08/09 08:48:32;;;;;;;11.95;8.57;;;;;;;20.72;76.35;101537.44;5053055;28;20044;-63
2023/08/09 08:51:00;;;;;;;10.25;8.18;;;;;;;20.92;77.41;101550.47;5038281;28;20114;-63
2023/08/09 08:53:27;;;;;;;11.02;8.88;;;;;;;20.70;76.70;101549.16;5056323;28;20378;-63
2023/08/09 08:55:52;;;;;;;16.60;8.90;;;;;;;20.61;75.89;101542.16;5056274;28;20028;-62
2023/08/09 08:58:18;;;;;;;10.35;7.68;;;;;;;20.70;76.03;101547.34;5056142;28;20036;-63
2023/08/09 09:00:43;;;;;;;11.10;8.10;;;;;;;21.01;75.76;101535.97;5055843;28;20063;-63
2023/08/09 09:03:09;;;;;;;10.15;7.55;;;;;;;21.15;76.17;101543.72;5056077;28;20041;-63
2023/08/09 09:05:34;;;;;;;11.30;7.10;;;;;;;21.11;74.16;101550.09;5055979;28;20029;-63
2023/08/09 09:07:59;;;;;;;9.40;6.50;;;;;;;21.20;73.30;101561.53;5055944;28;20059;-63
2023/08/09 09:10:25;;;;;;;12.38;6.88;;;;;;;21.48;73.41;101551.06;5056093;28;20036;-63
2023/08/09 09:13:01;;;;;;;7.88;6.25;;;;;;;21.73;71.62;101553.19;5056111;28;20021;-62
2023/08/09 09:15:27;;;;;;;9.52;6.30;;;;;;;21.57;71.08;101549.09;5037773;28;20021;-61
2023/08/09 09:17:53;;;;;;;10.30;5.97;;;;;;;21.69;69.94;101555.06;5055771;28;20040;-61
2023/08/09 09:20:23;;;;;;;11.82;6.60;;;;;;;21.76;71.07;101561.19;5055293;28;20032;-61
2023/08/09 09:22:49;;;;;;;9.93;6.45;;;;;;;22.02;69.36;101568.63;5056369;28;20060;-62
2023/08/09 09:25:17;;;;;;;10.18;5.38;;;;;;;22.13;69.08;101563.84;5055668;28;20075;-61
2023/08/09 09:27:47;;;;;;;6.57;5.38;;;;;;;22.34;67.17;101569.63;5055625;28;20465;-63
2023/08/09 09:30:12;;;;;;;7.60;5.53;;;;;;;22.58;69.29;101571.66;5055194;28;20082;-63
2023/08/09 09:32:59;;;;;;;9.18;5.45;;;;;;;22.69;67.19;101569.53;5055804;28;20115;-62
2023/08/09 09:35:30;;;;;;;8.02;5.68;;;;;;;22.71;65.29;101572.19;5037525;28;20021;-62
2023/08/09 09:37:58;;;;;;;8.48;5.50;;;;;;;22.99;65.39;101575.00;5055554;28;20485;-61
2023/08/09 09:40:25;;;;;;;9.00;5.30;;;;;;;23.13;63.93;101564.72;5054254;28;20079;-61
2023/08/09 09:42:55;;;;;;;8.02;5.70;;;;;;;23.07;63.50;101564.88;5055712;28;20029;-61
2023/08/09 09:45:28;;;;;;;8.75;6.07;;;;;;;23.18;64.28;101569.97;5055295;28;20040;-62
2023/08/09 09:47:56;;;;;;;8.77;6.25;;;;;;;22.97;64.46;101571.47;5055362;28;20037;-62
2023/08/09 09:50:25;;;;;;;8.38;6.10;;;;;;;22.92;65.45;101570.75;5055131;28;20056;-62
2023/08/09 09:52:52;;;;;;;12.45;6.65;;;;;;;22.69;64.04;101571.34;5055350;28;20058;-61
2023/08/09 09:55:19;;;;;;;8.32;5.85;;;;;;;22.86;65.58;101560.97;5055161;28;20028;-61
2023/08/09 09:57:45;;;;;;;8.30;6.50;;;;;;;23.05;64.85;101568.56;5054937;28;20450;-62
2023/08/09 10:00:11;;;;;;;9.27;5.93;;;;;;;23.28;63.08;101570.56;5053900;28;20053;-61
2023/08/09 10:02:48;;;;;;;7.97;5.57;;;;;;;23.56;62.82;101571.47;5055086;28;20033;-62
2023/08/09 10:05:19;;;;;;;10.40;5.82;;;;;;;23.41;61.75;101566.56;5054880;28;20491;-62
2023/08/09 10:07:46;;;;;;;11.90;6.30;;;;;;;23.45;60.97;101579.03;5055097;28;20032;-62
2023/08/09 10:10:12;;;;;;;11.95;6.55;;;;;;;23.76;61.94;101570.84;5054737;28;20399;-62
2023/08/09 10:12:42;;;;;;;8.45;6.28;;;;;;;24.30;62.21;101563.66;5054835;28;20375;-61
2023/08/09 10:15:11;;;;;;;9.02;6.13;;;;;;;24.34;56.80;101565.31;5054525;28;20458;-63
2023/08/09 10:17:39;;;;;;;8.20;7.07;;;;;;;23.70;57.50;101560.28;5054750;28;20028;-61
2023/08/09 10:20:07;;;;;;;10.60;7.13;;;;;;;23.64;58.97;101564.03;5054468;28;20036;-61
2023/08/09 10:22:32;;;;;;;10.82;8.02;;;;;;;23.28;60.37;101557.09;5054590;28;20462;-61
2023/08/09 10:24:58;;;;;;;10.73;8.00;;;;;;;23.22;60.80;101553.66;5054476;28;20103;-60
2023/08/09 10:27:45;;;;;;;9.77;7.30;;;;;;;23.67;62.38;101553.16;5054634;28;20532;-62
2023/08/09 10:30:13;;;;;;;10.93;6.90;;;;;;;24.20;59.67;101561.28;5036227;28;20759;-62
2023/08/09 10:33:09;;;;;;;11.05;7.00;;;;;;;24.70;60.55;101574.84;5054532;28;20083;-61
2023/08/09 10:35:54;;;;;;;10.25;7.05;;;;;;;24.92;56.68;101569.53;5037557;28;20056;-61
2023/08/09 10:38:32;;;;;;;10.75;7.05;;;;;;;25.02;57.33;101566.47;5054269;28;20036;-61
2023/08/09 10:40:59;;;;;;;9.60;6.50;;;;;;;25.06;56.82;101574.41;5054139;28;20508;-61
2023/08/09 10:43:30;;;;;;;9.02;5.80;;;;;;;25.47;56.46;101571.94;5054324;28;20032;-61
2023/08/09 10:45:56;;;;;;;9.45;5.95;;;;;;;25.51;52.68;101576.28;5053913;28;20082;-60
2023/08/09 10:48:25;;;;;;;6.85;5.40;;;;;;;25.60;51.84;101575.03;5054040;28;20483;-61
2023/08/09 10:51:16;;;;;;;8.15;4.85;;;;;;;25.28;54.01;101576.34;5053889;28;20032;-61
2023/08/09 10:53:57;;;;;;;6.43;4.73;;;;;;;24.85;55.07;101572.53;5036272;28;20465;-61
2023/08/09 10:56:45;;;;;;;8.00;4.75;;;;;;;25.07;56.39;101578.00;5053903;28;20053;-60
2023/08/09 10:59:21;;;;;;;10.38;5.32;;;;;;;25.18;54.77;101573.06;5053720;28;20061;-61
2023/08/09 11:01:49;;;;;;;6.40;4.97;;;;;;;25.20;52.82;101579.34;5053912;28;20032;-60
2023/08/09 11:04:15;;;;;;;7.38;4.90;;;;;;;25.15;55.41;101574.09;5053876;28;20123;-61
2023/08/09 11:06:42;;;;;;;7.28;4.38;;;;;;;25.51;51.61;101570.00;5054052;28;20025;-60
2023/08/09 11:09:13;;;;;;;8.88;4.40;;;;;;;25.43;51.85;101575.72;5053623;28;20119;-60
2023/08/09 11:11:41;;;;;;;6.65;4.53;;;;;;;25.28;50.83;101570.94;5053879;28;20023;-61
2023/08/09 11:14:09;;;;;;;7.43;4.70;;;;;;;25.10;51.55;101567.09;5053745;28;20086;-60
2023/08/09 11:16:35;;;;;;;7.07;4.53;;;;;;;24.96;51.31;101564.88;5053827;28;20043;-61